Time;durP1;ratioP1;P1;durP2;ratioP2;P2;SDS_P1;SDS_P2;PMS_P1;PMS_P2;Temp;Humidity;BMP_temperature;BMP_pressure;BME280_temperature;BME280_humidity;BME280_pressure;Samples;Min_cycle;Max_cycle;Signal;HPM_P1;HPM_P2
2022/05/12 00:00:00;;;;;;;5.57;3.25;;;16.10;99.90;;;;;;164977;29;1258;-72
2022/05/12 00:00:12;;;;;;;5.80;3.37;;;16.20;99.90;;;;;;164717;30;1541;-72
2022/05/12 00:00:24;;;;;;;5.61;3.26;;;16.20;99.90;;;;;;164346;30;1459;-73
2022/05/12 00:00:30;;;;;;;5.92;3.31;;;16.20;99.90;;;;;;164152;30;1217;-72
2022/05/12 00:00:36;;;;;;;5.30;3.20;;;16.20;99.90;;;;;;165949;29;2505;-72
2022/05/12 00:00:42;;;;;;;4.82;3.10;;;16.20;99.90;;;;;;166056;29;955;-73
2022/05/12 00:00:48;;;;;;;4.43;3.10;;;16.20;99.90;;;;;;166546;29;1352;-72
2022/05/12 00:00:54;;;;;;;4.17;3.10;;;16.20;99.90;;;;;;166658;29;908;-73
2022/05/12 00:00:59;;;;;;;3.95;2.95;;;16.20;99.90;;;;;;166512;29;2675;-73
2022/05/12 00:01:05;;;;;;;4.25;2.95;;;16.20;99.90;;;;;;166605;29;1361;-72
2022/05/12 00:01:11;;;;;;;5.15;3.17;;;16.20;99.90;;;;;;165336;29;1339;-72
2022/05/12 00:01:17;;;;;;;5.15;3.10;;;16.20;99.90;;;;;;165400;29;940;-73
2022/05/12 00:01:22;;;;;;;5.03;3.00;;;16.20;99.90;;;;;;164807;30;924;-73
2022/05/12 00:01:28;;;;;;;5.05;3.08;;;16.20;99.90;;;;;;166017;29;850;-73
2022/05/12 00:01:34;;;;;;;5.43;3.28;;;16.20;99.90;;;;;;166102;29;846;-72
2022/05/12 00:01:39;;;;;;;4.93;3.17;;;16.20;99.90;;;;;;165995;29;936;-72
2022/05/12 00:01:45;;;;;;;5.47;3.20;;;16.20;99.90;;;;;;166061;29;1000;-72
2022/05/12 00:01:51;;;;;;;5.90;3.30;;;16.20;99.90;;;;;;165932;29;1424;-73
2022/05/12 00:01:58;;;;;;;6.88;3.40;;;16.20;99.90;;;;;;165917;29;1534;-73
2022/05/12 00:02:04;;;;;;;6.80;3.38;;;16.20;99.90;;;;;;166645;29;1038;-72
2022/05/12 00:02:10;;;;;;;6.90;3.37;;;16.20;99.90;;;;;;165335;29;833;-73
2022/05/12 00:02:18;;;;;;;7.04;3.38;;;16.20;99.90;;;;;;165238;29;2157;-72
2022/05/12 00:02:24;;;;;;;6.22;3.24;;;16.20;99.90;;;;;;165265;29;1747;-73
2022/05/12 00:02:30;;;;;;;7.75;3.30;;;16.20;99.90;;;;;;166406;29;1646;-73
2022/05/12 00:02:36;;;;;;;8.30;3.30;;;16.20;99.90;;;;;;166312;29;1383;-73
2022/05/12 00:02:43;;;;;;;7.53;3.27;;;16.20;99.90;;;;;;166958;29;1858;-73
2022/05/12 00:02:49;;;;;;;8.68;3.28;;;16.20;99.90;;;;;;167285;29;996;-73
2022/05/12 00:02:55;;;;;;;7.70;3.23;;;16.20;99.90;;;;;;166597;29;1346;-72
2022/05/12 00:03:02;;;;;;;6.60;3.10;;;16.20;99.90;;;;;;165345;29;1369;-72
2022/05/12 00:03:08;;;;;;;6.07;3.00;;;16.20;99.90;;;;;;165982;29;1504;-73
2022/05/12 00:03:16;;;;;;;6.37;3.17;;;16.20;99.90;;;;;;166094;29;873;-73
2022/05/12 00:03:24;;;;;;;5.90;3.30;;;16.20;99.90;;;;;;165995;29;869;-73
2022/05/12 00:03:29;;;;;;;5.42;3.46;;;16.20;99.90;;;;;;164672;30;1672;-72
2022/05/12 00:03:35;;;;;;;5.43;3.40;;;16.20;99.90;;;;;;166003;29;1031;-73
2022/05/12 00:03:41;;;;;;;5.57;3.30;;;16.20;99.90;;;;;;166082;29;888;-72
2022/05/12 00:03:47;;;;;;;4.90;3.10;;;16.20;99.90;;;;;;165467;29;2014;-73
2022/05/12 00:03:52;;;;;;;5.05;3.10;;;16.20;99.90;;;;;;165704;29;1712;-72
2022/05/12 00:03:58;;;;;;;5.00;3.03;;;16.20;99.90;;;;;;165662;29;1829;-72
2022/05/12 00:04:04;;;;;;;5.17;3.10;;;16.20;99.90;;;;;;166691;29;1011;-73
2022/05/12 00:04:10;;;;;;;4.63;3.10;;;16.20;99.90;;;;;;165992;29;1092;-73
2022/05/12 00:04:16;;;;;;;4.60;3.12;;;16.20;99.90;;;;;;164713;29;1281;-73
2022/05/12 00:04:22;;;;;;;4.40;3.03;;;16.20;99.90;;;;;;165493;29;989;-73
2022/05/12 00:04:32;;;;;;;4.47;3.00;;;16.20;99.90;;;;;;165366;29;1075;-73
2022/05/12 00:04:39;;;;;;;5.60;3.19;;;16.20;99.90;;;;;;166007;29;1236;-73
2022/05/12 00:04:45;;;;;;;6.05;3.30;;;16.20;99.90;;;;;;165938;29;985;-73
2022/05/12 00:04:50;;;;;;;5.95;3.28;;;16.10;99.90;;;;;;164843;30;1365;-72
2022/05/12 00:04:56;;;;;;;5.88;3.25;;;16.10;99.90;;;;;;164697;29;1204;-73
2022/05/12 00:05:04;;;;;;;5.57;3.40;;;16.10;99.90;;;;;;164753;30;841;-72
2022/05/12 00:05:11;;;;;;;5.38;3.37;;;16.10;99.90;;;;;;165198;29;1472;-72
2022/05/12 00:05:17;;;;;;;5.42;3.34;;;16.10;99.90;;;;;;166548;29;1319;-73
2022/05/12 00:05:24;;;;;;;6.00;3.55;;;16.10;99.90;;;;;;166666;29;1087;-72
2022/05/12 00:05:30;;;;;;;7.20;3.63;;;16.10;99.90;;;;;;166564;29;1945;-72
2022/05/12 00:05:36;;;;;;;7.40;3.53;;;16.10;99.90;;;;;;166546;29;1306;-72
2022/05/12 00:05:42;;;;;;;7.22;3.47;;;16.10;99.90;;;;;;166652;29;876;-72
2022/05/12 00:05:48;;;;;;;7.55;3.38;;;16.10;99.90;;;;;;166682;29;829;-73
2022/05/12 00:05:53;;;;;;;7.40;3.38;;;16.10;99.90;;;;;;166694;29;897;-72
2022/05/12 00:05:59;;;;;;;6.63;3.40;;;16.10;99.90;;;;;;166004;29;1744;-72
2022/05/12 00:06:05;;;;;;;5.93;3.40;;;16.10;99.90;;;;;;165397;29;922;-72
2022/05/12 00:06:10;;;;;;;5.50;3.35;;;16.10;99.90;;;;;;164152;30;885;-73
2022/05/12 00:06:16;;;;;;;5.30;3.30;;;16.10;99.90;;;;;;164159;30;1068;-73
2022/05/12 00:06:22;;;;;;;4.32;3.20;;;16.00;99.90;;;;;;164816;30;917;-74
2022/05/12 00:06:28;;;;;;;5.45;2.92;;;16.10;99.90;;;;;;165368;29;1080;-73
2022/05/12 00:06:35;;;;;;;5.60;2.90;;;16.00;99.90;;;;;;165324;29;1450;-73
2022/05/12 00:06:40;;;;;;;6.13;3.05;;;16.10;99.90;;;;;;165477;29;929;-72
2022/05/12 00:06:46;;;;;;;7.38;3.17;;;16.10;99.90;;;;;;165294;29;1186;-72
2022/05/12 00:06:52;;;;;;;7.57;3.13;;;16.10;99.90;;;;;;165457;29;834;-73
2022/05/12 00:06:59;;;;;;;6.47;3.20;;;16.10;99.90;;;;;;164763;30;981;-73
2022/05/12 00:07:06;;;;;;;6.80;3.25;;;16.10;99.90;;;;;;165197;29;1442;-73
2022/05/12 00:07:12;;;;;;;5.77;2.90;;;16.10;99.90;;;;;;166073;29;1040;-73
2022/05/12 00:07:18;;;;;;;5.05;2.90;;;16.10;99.90;;;;;;166055;29;1269;-72
2022/05/12 00:07:25;;;;;;;5.20;2.90;;;16.10;99.90;;;;;;166661;29;861;-72
2022/05/12 00:07:31;;;;;;;5.20;3.00;;;16.10;99.90;;;;;;166567;29;1375;-72
2022/05/12 00:07:37;;;;;;;5.53;3.28;;;16.10;99.90;;;;;;167197;29;1314;-73
2022/05/12 00:07:43;;;;;;;5.88;3.42;;;16.10;99.90;;;;;;166826;29;921;-73
2022/05/12 00:07:50;;;;;;;5.27;3.40;;;16.10;99.90;;;;;;167289;29;982;-72
2022/05/12 00:07:56;;;;;;;4.63;3.30;;;16.20;99.90;;;;;;167291;29;2512;-74
2022/05/12 00:08:02;;;;;;;4.43;3.23;;;16.20;99.90;;;;;;167751;29;1253;-72
2022/05/12 00:08:07;;;;;;;4.32;3.05;;;16.20;99.90;;;;;;166627;29;1066;-73
2022/05/12 00:08:13;;;;;;;4.18;2.97;;;16.20;99.90;;;;;;165423;29;909;-72
2022/05/12 00:08:19;;;;;;;4.13;2.88;;;16.20;99.90;;;;;;165436;29;1264;-72
2022/05/12 00:08:24;;;;;;;4.23;2.80;;;16.20;99.90;;;;;;166062;29;818;-72
2022/05/12 00:08:31;;;;;;;4.10;2.78;;;16.20;99.90;;;;;;165390;29;1133;-72
2022/05/12 00:08:37;;;;;;;4.28;2.88;;;16.20;99.90;;;;;;165294;29;1370;-73
2022/05/12 00:08:42;;;;;;;4.77;3.00;;;16.20;99.90;;;;;;166593;29;1343;-73
2022/05/12 00:08:48;;;;;;;4.97;3.10;;;16.20;99.90;;;;;;166636;29;1044;-72
2022/05/12 00:08:54;;;;;;;5.70;3.10;;;16.20;99.90;;;;;;166630;29;1406;-72
2022/05/12 00:09:00;;;;;;;6.50;3.40;;;16.20;99.90;;;;;;166667;29;833;-72
2022/05/12 00:09:05;;;;;;;6.43;3.27;;;16.20;99.90;;;;;;166579;29;829;-72
2022/05/12 00:09:11;;;;;;;5.95;3.25;;;16.20;99.90;;;;;;166583;29;996;-73
2022/05/12 00:09:17;;;;;;;6.35;3.42;;;16.20;99.90;;;;;;165340;29;1048;-73
2022/05/12 00:09:23;;;;;;;6.30;3.67;;;16.20;99.90;;;;;;164813;30;961;-73
2022/05/12 00:09:29;;;;;;;5.60;3.60;;;16.20;99.90;;;;;;165387;29;1362;-72
2022/05/12 00:09:36;;;;;;;5.82;3.63;;;16.20;99.90;;;;;;166679;29;971;-72
2022/05/12 00:09:42;;;;;;;6.34;3.56;;;16.20;99.90;;;;;;165426;29;896;-73
2022/05/12 00:09:47;;;;;;;6.43;3.33;;;16.20;99.90;;;;;;166687;29;798;-73
2022/05/12 00:09:53;;;;;;;6.97;3.13;;;16.10;99.90;;;;;;166576;29;2118;-73
2022/05/12 00:09:59;;;;;;;7.32;3.00;;;16.10;99.90;;;;;;166319;29;1946;-72
2022/05/12 00:10:08;;;;;;;7.40;3.03;;;16.10;99.90;;;;;;167240;29;1369;-73
2022/05/12 00:10:19;;;;;;;10.35;3.05;;;16.10;99.90;;;;;;165302;29;1753;-72
2022/05/12 00:10:26;;;;;;;9.48;3.13;;;16.10;99.90;;;;;;165304;29;1825;-73
2022/05/12 00:10:32;;;;;;;9.26;3.30;;;16.10;99.90;;;;;;164803;30;1316;-72
2022/05/12 00:10:40;;;;;;;7.87;3.27;;;16.10;99.90;;;;;;166022;29;965;-73
2022/05/12 00:10:46;;;;;;;5.73;3.31;;;16.10;99.90;;;;;;165883;29;1359;-73
2022/05/12 00:10:52;;;;;;;5.93;3.37;;;16.10;99.90;;;;;;166539;29;1150;-73
2022/05/12 00:10:58;;;;;;;5.65;3.40;;;16.10;99.90;;;;;;165311;29;1359;-73
2022/05/12 00:11:04;;;;;;;5.47;3.35;;;16.10;99.90;;;;;;165433;29;892;-72
2022/05/12 00:11:10;;;;;;;5.90;3.47;;;16.10;99.90;;;;;;165120;29;1648;-72
2022/05/12 00:11:16;;;;;;;5.77;3.50;;;16.10;99.90;;;;;;166693;29;1031;-72
2022/05/12 00:11:21;;;;;;;5.65;3.47;;;16.10;99.90;;;;;;166656;29;980;-73
2022/05/12 00:11:30;;;;;;;5.57;3.30;;;16.10;99.90;;;;;;166670;29;876;-73
2022/05/12 00:11:35;;;;;;;5.58;3.33;;;16.10;99.90;;;;;;165878;29;1386;-72
2022/05/12 00:11:41;;;;;;;5.27;3.23;;;16.10;99.90;;;;;;165729;29;1945;-73
2022/05/12 00:11:47;;;;;;;5.04;2.98;;;16.10;99.90;;;;;;165261;29;1904;-73
2022/05/12 00:11:54;;;;;;;4.93;3.00;;;16.10;99.90;;;;;;165593;29;1917;-73
2022/05/12 00:12:00;;;;;;;5.00;3.03;;;16.10;99.90;;;;;;165234;29;1300;-72
2022/05/12 00:12:06;;;;;;;4.38;2.88;;;16.10;99.90;;;;;;166664;29;881;-72
2022/05/12 00:12:12;;;;;;;4.36;2.86;;;16.10;99.90;;;;;;166705;29;1048;-72
2022/05/12 00:12:18;;;;;;;4.00;2.97;;;16.10;99.90;;;;;;165361;29;1412;-73
2022/05/12 00:12:24;;;;;;;4.45;3.05;;;16.10;99.90;;;;;;165889;29;1215;-73
2022/05/12 00:12:30;;;;;;;4.53;2.90;;;16.20;99.90;;;;;;165478;29;1250;-72
2022/05/12 00:12:38;;;;;;;5.30;3.03;;;16.10;99.90;;;;;;165930;29;1320;-73
2022/05/12 00:12:44;;;;;;;5.30;3.10;;;16.10;99.90;;;;;;165904;29;1646;-72
2022/05/12 00:12:51;;;;;;;5.33;3.13;;;16.10;99.90;;;;;;166028;29;1479;-72
2022/05/12 00:12:59;;;;;;;5.16;3.36;;;16.10;99.90;;;;;;166543;29;1298;-73
2022/05/12 00:13:06;;;;;;;6.52;3.45;;;16.10;99.90;;;;;;165977;29;996;-72
2022/05/12 00:13:13;;;;;;;7.13;3.60;;;16.10;99.90;;;;;;166081;29;953;-73
2022/05/12 00:13:18;;;;;;;7.13;3.38;;;16.10;99.90;;;;;;166045;29;982;-72
2022/05/12 00:13:24;;;;;;;6.68;3.17;;;16.20;99.90;;;;;;166656;29;865;-73
2022/05/12 00:13:30;;;;;;;6.05;3.00;;;16.20;99.90;;;;;;166653;29;948;-73
2022/05/12 00:13:36;;;;;;;5.18;3.03;;;16.20;99.90;;;;;;166058;29;984;-72
2022/05/12 00:13:42;;;;;;;5.22;3.03;;;16.20;99.90;;;;;;164825;30;862;-73
2022/05/12 00:13:47;;;;;;;6.03;3.17;;;16.20;99.90;;;;;;166372;29;1871;-73
2022/05/12 00:13:53;;;;;;;7.38;3.42;;;16.20;99.90;;;;;;166692;29;829;-72
2022/05/12 00:13:59;;;;;;;7.38;3.42;;;16.20;99.90;;;;;;165976;29;996;-72
2022/05/12 00:14:04;;;;;;;7.00;3.37;;;16.20;99.90;;;;;;167199;29;1606;-72
2022/05/12 00:14:10;;;;;;;7.03;3.35;;;16.20;99.90;;;;;;166615;29;1213;-72
2022/05/12 00:14:18;;;;;;;6.47;3.20;;;16.20;99.90;;;;;;166542;29;1609;-72
2022/05/12 00:14:24;;;;;;;4.86;3.00;;;16.20;99.90;;;;;;166693;29;1067;-72
2022/05/12 00:14:29;;;;;;;5.03;3.00;;;16.20;99.90;;;;;;166619;29;861;-72
2022/05/12 00:14:35;;;;;;;5.43;3.10;;;16.20;99.90;;;;;;165781;29;1887;-73
2022/05/12 00:14:41;;;;;;;5.22;3.10;;;16.20;99.90;;;;;;165907;29;1319;-72
2022/05/12 00:14:47;;;;;;;5.40;3.28;;;16.20;99.90;;;;;;165333;29;1791;-73
2022/05/12 00:14:53;;;;;;;5.50;3.20;;;16.10;99.90;;;;;;166009;29;1969;-72
2022/05/12 00:14:58;;;;;;;5.30;3.20;;;16.10;99.90;;;;;;166037;29;1000;-72
2022/05/12 00:15:11;;;;;;;5.32;3.20;;;16.10;99.90;;;;;;165971;29;1489;-72
2022/05/12 00:15:24;;;;;;;5.00;3.05;;;16.10;99.90;;;;;;165890;29;1360;-73
2022/05/12 00:15:33;;;;;;;5.26;3.04;;;16.10;99.90;;;;;;165384;29;1230;-73
2022/05/12 00:15:39;;;;;;;5.54;3.23;;;16.10;99.90;;;;;;166527;29;1416;-72
2022/05/12 00:15:45;;;;;;;5.80;3.30;;;16.10;99.90;;;;;;166904;29;2020;-73
2022/05/12 00:15:53;;;;;;;6.07;3.43;;;16.10;99.90;;;;;;165919;29;1441;-72
2022/05/12 00:15:58;;;;;;;5.68;3.48;;;16.10;99.90;;;;;;165989;29;945;-72
2022/05/12 00:16:05;;;;;;;5.68;3.38;;;16.00;99.90;;;;;;165947;29;1621;-73
2022/05/12 00:16:11;;;;;;;6.83;3.30;;;16.00;99.90;;;;;;165443;29;921;-73
2022/05/12 00:16:16;;;;;;;6.73;3.33;;;16.00;99.90;;;;;;166730;29;925;-73
2022/05/12 00:16:22;;;;;;;6.80;3.45;;;16.00;99.90;;;;;;165673;29;1505;-73
2022/05/12 00:16:28;;;;;;;6.65;3.40;;;16.00;99.90;;;;;;166588;29;1280;-73
2022/05/12 00:16:35;;;;;;;6.53;3.43;;;16.00;99.90;;;;;;166584;29;1035;-73
2022/05/12 00:16:41;;;;;;;6.70;3.57;;;16.00;99.90;;;;;;166038;29;870;-72
2022/05/12 00:16:47;;;;;;;7.72;3.45;;;16.00;99.90;;;;;;166057;29;925;-73
2022/05/12 00:16:56;;;;;;;8.63;3.42;;;15.90;99.90;;;;;;166382;29;2040;-73
2022/05/12 00:17:03;;;;;;;8.43;3.29;;;15.90;99.90;;;;;;165650;29;2286;-73
2022/05/12 00:17:09;;;;;;;8.13;3.13;;;15.90;99.90;;;;;;166885;29;1390;-73
2022/05/12 00:17:14;;;;;;;5.25;3.00;;;15.90;99.90;;;;;;166589;29;975;-73
2022/05/12 00:17:20;;;;;;;4.40;2.97;;;15.90;99.90;;;;;;166692;29;1011;-72
2022/05/12 00:17:26;;;;;;;4.17;2.93;;;15.90;99.90;;;;;;166062;29;1360;-73
2022/05/12 00:17:31;;;;;;;4.38;3.00;;;15.90;99.90;;;;;;164846;30;902;-72
2022/05/12 00:17:37;;;;;;;4.28;2.92;;;15.90;99.90;;;;;;165924;29;1318;-72
2022/05/12 00:17:44;;;;;;;4.43;3.10;;;15.90;99.90;;;;;;165422;29;814;-72
2022/05/12 00:17:50;;;;;;;4.56;2.98;;;15.90;99.90;;;;;;166040;29;941;-72
2022/05/12 00:17:56;;;;;;;4.57;2.95;;;15.90;99.90;;;;;;165855;29;2813;-73
2022/05/12 00:18:06;;;;;;;4.80;2.97;;;15.90;99.90;;;;;;166152;29;893;-72
2022/05/12 00:18:12;;;;;;;5.40;3.00;;;15.90;99.90;;;;;;166643;29;981;-73
2022/05/12 00:18:18;;;;;;;5.50;3.00;;;15.80;99.90;;;;;;165400;29;984;-73
2022/05/12 00:18:24;;;;;;;5.43;3.03;;;15.80;99.90;;;;;;165377;29;1432;-73
2022/05/12 00:18:30;;;;;;;5.10;2.95;;;15.80;99.90;;;;;;165888;29;1495;-72
2022/05/12 00:18:36;;;;;;;5.05;2.92;;;15.80;99.90;;;;;;166001;29;1004;-72
2022/05/12 00:18:41;;;;;;;4.45;2.88;;;15.80;99.90;;;;;;165406;29;1206;-72
2022/05/12 00:18:47;;;;;;;4.30;2.87;;;15.80;99.90;;;;;;164713;29;1607;-73
2022/05/12 00:18:53;;;;;;;4.55;2.90;;;15.80;99.90;;;;;;165971;29;1315;-73
2022/05/12 00:18:58;;;;;;;4.55;2.85;;;15.80;99.90;;;;;;166653;29;814;-72
2022/05/12 00:19:04;;;;;;;4.57;2.90;;;15.80;99.90;;;;;;167227;29;1169;-73
2022/05/12 00:19:10;;;;;;;4.30;2.90;;;15.80;99.90;;;;;;168023;29;1034;-72
2022/05/12 00:19:16;;;;;;;4.32;2.90;;;15.80;99.90;;;;;;167288;29;915;-72
2022/05/12 00:19:23;;;;;;;4.13;2.80;;;15.80;99.90;;;;;;166296;29;1835;-72
2022/05/12 00:19:29;;;;;;;4.90;2.85;;;15.70;99.90;;;;;;166662;29;973;-72
2022/05/12 00:19:35;;;;;;;4.83;2.93;;;15.80;99.90;;;;;;165328;29;1292;-73
2022/05/12 00:19:41;;;;;;;5.07;3.08;;;15.70;99.90;;;;;;165411;29;1001;-73
2022/05/12 00:19:46;;;;;;;5.15;3.22;;;15.70;99.90;;;;;;166033;29;1389;-73
2022/05/12 00:19:52;;;;;;;5.77;3.40;;;15.70;99.90;;;;;;166090;29;832;-73
2022/05/12 00:19:58;;;;;;;5.90;3.38;;;15.70;99.90;;;;;;166527;29;1586;-73
2022/05/12 00:20:05;;;;;;;6.22;3.35;;;15.70;99.90;;;;;;167204;29;1614;-73
2022/05/12 00:20:14;;;;;;;6.93;3.20;;;15.70;99.90;;;;;;166585;29;1706;-72
2022/05/12 00:20:22;;;;;;;6.76;3.10;;;15.70;99.90;;;;;;166020;29;1029;-72
2022/05/12 00:20:29;;;;;;;5.47;3.00;;;15.70;99.90;;;;;;166000;29;1047;-73
2022/05/12 00:20:39;;;;;;;4.70;2.80;;;15.70;99.90;;;;;;165457;29;846;-73
2022/05/12 00:20:45;;;;;;;4.57;3.13;;;15.70;99.90;;;;;;165272;29;1437;-73
2022/05/12 00:20:52;;;;;;;5.05;3.17;;;15.70;99.90;;;;;;166032;29;1067;-73
2022/05/12 00:20:57;;;;;;;5.20;3.25;;;15.70;99.90;;;;;;165381;29;1054;-74
2022/05/12 00:21:03;;;;;;;5.32;3.33;;;15.70;99.90;;;;;;165335;29;1302;-72
2022/05/12 00:21:09;;;;;;;5.72;3.55;;;15.70;99.90;;;;;;165531;29;1847;-72
2022/05/12 00:21:15;;;;;;;6.55;3.67;;;15.70;99.90;;;;;;165303;29;1382;-72
2022/05/12 00:21:20;;;;;;;6.17;3.63;;;15.70;99.90;;;;;;165993;29;976;-72
2022/05/12 00:21:26;;;;;;;6.25;3.75;;;15.70;99.90;;;;;;165975;29;920;-73
2022/05/12 00:21:33;;;;;;;6.13;3.67;;;15.70;99.90;;;;;;166700;29;897;-73
2022/05/12 00:21:39;;;;;;;5.77;3.57;;;15.70;99.90;;;;;;165348;29;1431;-73
2022/05/12 00:21:45;;;;;;;4.40;3.30;;;15.70;99.90;;;;;;165334;29;1311;-72
2022/05/12 00:21:51;;;;;;;4.60;3.30;;;15.60;99.90;;;;;;165429;29;893;-72
2022/05/12 00:21:57;;;;;;;4.40;3.20;;;15.60;99.90;;;;;;165778;29;1572;-72
2022/05/12 00:22:03;;;;;;;4.78;3.35;;;15.60;99.90;;;;;;166066;29;945;-72
2022/05/12 00:22:08;;;;;;;5.57;3.38;;;15.60;99.90;;;;;;166000;29;953;-73
2022/05/12 00:22:14;;;;;;;5.93;3.35;;;15.60;99.90;;;;;;166091;29;822;-72
2022/05/12 00:22:20;;;;;;;6.15;3.47;;;15.60;99.90;;;;;;165258;29;1432;-72
2022/05/12 00:22:26;;;;;;;6.10;3.50;;;15.60;99.90;;;;;;165079;29;2066;-72
2022/05/12 00:22:31;;;;;;;5.90;3.40;;;15.60;99.90;;;;;;166053;29;1051;-72
2022/05/12 00:22:37;;;;;;;5.00;3.40;;;15.60;99.90;;;;;;165850;29;1693;-73
2022/05/12 00:22:44;;;;;;;4.72;3.38;;;15.60;99.90;;;;;;165295;29;1476;-73
2022/05/12 00:22:50;;;;;;;4.82;3.30;;;15.60;99.90;;;;;;165954;29;1318;-73
2022/05/12 00:23:27;;;;;;;5.10;3.30;;;15.70;99.90;;;;;;165307;29;1352;-72
2022/05/12 00:23:33;;;;;;;5.36;3.35;;;15.70;99.90;;;;;;164702;30;1243;-73
2022/05/12 00:23:39;;;;;;;5.57;3.43;;;15.70;99.90;;;;;;164719;30;989;-72
2022/05/12 00:23:56;;;;;;;5.55;3.38;;;15.70;99.90;;;;;;165172;29;1652;-72
2022/05/12 00:24:02;;;;;;;5.41;3.26;;;15.70;99.90;;;;;;164691;30;1248;-73
2022/05/12 00:24:08;;;;;;;5.44;3.30;;;15.70;99.90;;;;;;165053;29;2177;-73
2022/05/12 00:24:16;;;;;;;4.97;3.07;;;15.70;99.90;;;;;;165398;29;996;-72
2022/05/12 00:24:23;;;;;;;4.63;3.00;;;15.70;99.90;;;;;;165931;29;1456;-72
2022/05/12 00:24:28;;;;;;;4.20;2.90;;;15.70;99.90;;;;;;165920;29;1467;-73
2022/05/12 00:24:34;;;;;;;3.88;2.80;;;15.70;99.90;;;;;;165452;29;802;-72
2022/05/12 00:24:40;;;;;;;3.93;2.93;;;15.70;99.90;;;;;;166442;29;1878;-73
2022/05/12 00:24:45;;;;;;;4.28;3.10;;;15.80;99.90;;;;;;166197;29;1530;-73
2022/05/12 00:24:51;;;;;;;4.68;3.30;;;15.80;99.90;;;;;;166052;29;945;-73
2022/05/12 00:24:57;;;;;;;4.93;3.30;;;15.80;99.90;;;;;;165713;29;1536;-73
2022/05/12 00:25:04;;;;;;;5.07;3.33;;;15.80;99.90;;;;;;166050;29;981;-73
2022/05/12 00:25:13;;;;;;;5.40;3.34;;;15.80;99.90;;;;;;166418;29;1753;-73
2022/05/12 00:25:23;;;;;;;8.45;3.28;;;15.80;99.90;;;;;;166545;29;1525;-72
2022/05/12 00:25:28;;;;;;;7.99;3.19;;;15.80;99.90;;;;;;166032;29;1053;-73
2022/05/12 00:25:34;;;;;;;7.77;3.17;;;15.80;99.90;;;;;;166035;29;866;-73
2022/05/12 00:25:42;;;;;;;7.43;3.08;;;15.80;99.90;;;;;;166027;29;842;-73
2022/05/12 00:25:50;;;;;;;3.80;2.83;;;15.80;99.90;;;;;;165437;29;918;-72
2022/05/12 00:25:56;;;;;;;3.70;2.80;;;15.80;99.90;;;;;;165362;29;908;-73
2022/05/12 00:26:02;;;;;;;3.96;2.88;;;15.80;99.90;;;;;;165929;29;1395;-73
2022/05/12 00:26:08;;;;;;;4.33;3.00;;;15.80;99.90;;;;;;166010;29;865;-72
2022/05/12 00:26:14;;;;;;;4.50;3.08;;;15.80;99.90;;;;;;166047;29;956;-73
2022/05/12 00:26:19;;;;;;;4.93;3.30;;;15.80;99.90;;;;;;165991;29;1254;-73
2022/05/12 00:26:34;;;;;;;5.10;3.30;;;15.70;99.90;;;;;;165106;29;1576;-73
2022/05/12 00:26:41;;;;;;;5.63;3.45;;;15.70;99.90;;;;;;165382;29;1238;-72
2022/05/12 00:26:48;;;;;;;5.60;3.23;;;15.70;99.90;;;;;;165443;29;956;-73
2022/05/12 00:26:53;;;;;;;5.47;3.20;;;15.70;99.90;;;;;;166065;29;952;-73
2022/05/12 00:26:59;;;;;;;5.43;3.20;;;15.70;99.90;;;;;;165380;29;1421;-73
2022/05/12 00:27:05;;;;;;;5.22;3.00;;;15.70;99.90;;;;;;165387;29;1045;-72
2022/05/12 00:27:11;;;;;;;4.95;2.92;;;15.70;99.90;;;;;;165310;29;1237;-72
2022/05/12 00:27:16;;;;;;;5.88;3.25;;;15.80;99.90;;;;;;166674;29;873;-73
2022/05/12 00:27:22;;;;;;;5.97;3.30;;;15.70;99.90;;;;;;166021;29;1055;-73
2022/05/12 00:27:28;;;;;;;5.72;3.22;;;15.80;99.90;;;;;;165934;29;2031;-73
2022/05/12 00:27:33;;;;;;;5.78;3.40;;;15.80;99.90;;;;;;166046;29;931;-72
2022/05/12 00:27:39;;;;;;;6.40;3.57;;;15.80;99.90;;;;;;166046;29;965;-72
2022/05/12 00:27:45;;;;;;;5.82;3.45;;;15.80;99.90;;;;;;166608;29;941;-72
2022/05/12 00:27:51;;;;;;;6.35;3.40;;;15.80;99.90;;;;;;166598;29;1039;-73
2022/05/12 00:27:56;;;;;;;6.90;3.30;;;15.80;99.90;;;;;;164830;29;1209;-73
2022/05/12 00:28:03;;;;;;;6.68;3.25;;;15.80;99.90;;;;;;165349;29;1307;-73
2022/05/12 00:28:09;;;;;;;6.00;2.83;;;15.80;99.90;;;;;;166525;29;1292;-73
2022/05/12 00:28:18;;;;;;;6.60;2.88;;;15.80;99.90;;;;;;166713;29;1034;-72
2022/05/12 00:28:26;;;;;;;6.66;2.90;;;15.80;99.90;;;;;;167261;29;1055;-72
2022/05/12 00:28:32;;;;;;;7.30;3.00;;;15.70;99.90;;;;;;165989;29;1307;-72
2022/05/12 00:28:37;;;;;;;8.10;3.17;;;15.70;99.90;;;;;;166043;29;953;-73
2022/05/12 00:28:43;;;;;;;8.52;3.38;;;15.70;99.90;;;;;;166030;29;1043;-73
2022/05/12 00:28:49;;;;;;;8.23;3.40;;;15.70;99.90;;;;;;166625;29;910;-73
2022/05/12 00:28:57;;;;;;;7.20;3.33;;;15.70;99.90;;;;;;165397;29;865;-73
2022/05/12 00:29:06;;;;;;;6.77;3.31;;;15.70;99.90;;;;;;165394;29;1089;-72
2022/05/12 00:29:12;;;;;;;5.56;3.26;;;15.60;99.90;;;;;;165944;29;1595;-73
2022/05/12 00:29:18;;;;;;;4.70;3.03;;;15.60;99.90;;;;;;165991;29;909;-73
2022/05/12 00:29:25;;;;;;;4.65;3.00;;;15.60;99.90;;;;;;166259;29;1649;-72
2022/05/12 00:29:31;;;;;;;4.70;3.07;;;15.60;99.90;;;;;;166714;29;964;-72
2022/05/12 00:29:36;;;;;;;4.68;3.17;;;15.60;99.90;;;;;;166614;29;846;-72
2022/05/12 00:29:42;;;;;;;5.00;3.30;;;15.60;99.90;;;;;;167227;29;1363;-73
2022/05/12 00:29:48;;;;;;;5.13;3.33;;;15.60;99.90;;;;;;166675;29;786;-73
2022/05/12 00:29:53;;;;;;;5.03;3.23;;;15.70;99.90;;;;;;166588;29;1192;-72
2022/05/12 00:29:59;;;;;;;4.78;3.17;;;15.70;99.90;;;;;;166472;29;1784;-73
2022/05/12 00:30:09;;;;;;;4.78;3.15;;;15.70;99.90;;;;;;166496;29;1286;-73
2022/05/12 00:30:15;;;;;;;4.73;2.99;;;15.70;99.90;;;;;;164968;29;1605;-72
2022/05/12 00:30:21;;;;;;;4.90;3.07;;;15.60;99.90;;;;;;166596;29;1417;-72
2022/05/12 00:30:26;;;;;;;5.10;3.28;;;15.60;99.90;;;;;;166280;29;1573;-73
2022/05/12 00:30:33;;;;;;;5.13;3.22;;;15.60;99.90;;;;;;166563;29;1325;-73
2022/05/12 00:30:39;;;;;;;4.67;3.00;;;15.60;99.90;;;;;;167186;29;1603;-73
2022/05/12 00:30:51;;;;;;;4.33;2.93;;;15.60;99.90;;;;;;166090;29;1123;-72
2022/05/12 00:30:58;;;;;;;6.15;2.95;;;15.60;99.90;;;;;;166624;29;972;-73
2022/05/12 00:31:04;;;;;;;6.05;3.00;;;15.60;99.90;;;;;;166672;29;989;-72
2022/05/12 00:31:10;;;;;;;6.17;3.10;;;15.60;99.90;;;;;;165409;29;826;-72
2022/05/12 00:31:15;;;;;;;6.20;3.08;;;15.60;99.90;;;;;;165362;29;834;-73
2022/05/12 00:31:21;;;;;;;5.30;2.92;;;15.60;99.90;;;;;;166652;29;968;-72
2022/05/12 00:31:29;;;;;;;4.63;2.92;;;15.60;99.90;;;;;;166610;29;1581;-72
2022/05/12 00:31:40;;;;;;;4.83;3.00;;;15.50;99.90;;;;;;166065;29;901;-72
2022/05/12 00:31:47;;;;;;;5.16;3.29;;;15.50;99.90;;;;;;165949;29;1321;-73
2022/05/12 00:31:53;;;;;;;5.25;3.38;;;15.50;99.90;;;;;;165917;29;2069;-73
2022/05/12 00:31:59;;;;;;;5.03;3.40;;;15.50;99.90;;;;;;165888;29;1208;-73
2022/05/12 00:32:05;;;;;;;4.87;3.37;;;15.50;99.90;;;;;;165948;29;921;-73
2022/05/12 00:32:11;;;;;;;5.17;3.37;;;15.50;99.90;;;;;;165743;29;1734;-72
2022/05/12 00:32:17;;;;;;;5.03;3.37;;;15.50;99.90;;;;;;165350;29;1286;-73
2022/05/12 00:32:24;;;;;;;5.45;3.28;;;15.50;99.90;;;;;;166104;29;929;-72
2022/05/12 00:32:29;;;;;;;6.23;3.27;;;15.50;99.90;;;;;;166735;29;862;-72
2022/05/12 00:32:43;;;;;;;6.53;3.30;;;15.50;99.90;;;;;;165947;29;1016;-73
2022/05/12 00:32:49;;;;;;;6.21;3.16;;;15.50;99.90;;;;;;166478;29;1459;-73
2022/05/12 00:32:54;;;;;;;6.25;3.25;;;15.50;99.90;;;;;;166619;29;993;-73
2022/05/12 00:33:00;;;;;;;5.93;3.27;;;15.50;99.90;;;;;;166377;29;1667;-72
2022/05/12 00:33:07;;;;;;;6.03;3.40;;;15.50;99.90;;;;;;165229;29;1798;-72
2022/05/12 00:33:16;;;;;;;6.42;3.46;;;15.50;99.90;;;;;;165415;29;1051;-72
2022/05/12 00:33:25;;;;;;;6.37;3.54;;;15.60;99.90;;;;;;165914;29;1554;-72
2022/05/12 00:33:31;;;;;;;6.19;3.47;;;15.60;99.90;;;;;;166041;29;1064;-72
2022/05/12 00:33:37;;;;;;;6.70;3.35;;;15.60;99.90;;;;;;165942;29;1464;-72
2022/05/12 00:33:42;;;;;;;7.88;3.35;;;15.60;99.90;;;;;;166005;29;1056;-73
2022/05/12 00:33:48;;;;;;;8.00;3.40;;;15.60;99.90;;;;;;166033;29;988;-73
2022/05/12 00:33:55;;;;;;;8.38;3.42;;;15.60;99.90;;;;;;166083;29;909;-73
2022/05/12 00:34:01;;;;;;;7.67;3.30;;;15.60;99.90;;;;;;165978;29;1298;-72
2022/05/12 00:34:09;;;;;;;6.93;3.37;;;15.60;99.90;;;;;;165276;29;1537;-73
2022/05/12 00:34:17;;;;;;;5.70;3.33;;;15.60;99.90;;;;;;165846;29;2122;-72
2022/05/12 00:34:23;;;;;;;5.05;3.27;;;15.50;99.90;;;;;;165834;29;1419;-73
2022/05/12 00:34:29;;;;;;;4.97;3.20;;;15.50;99.90;;;;;;166074;29;996;-72
2022/05/12 00:34:34;;;;;;;4.60;3.30;;;15.50;99.90;;;;;;165952;29;1046;-72
2022/05/12 00:34:40;;;;;;;4.50;3.30;;;15.50;99.90;;;;;;166056;29;861;-72
2022/05/12 00:34:46;;;;;;;3.97;3.13;;;15.50;99.90;;;;;;165316;29;1197;-72
2022/05/12 00:34:51;;;;;;;3.87;3.00;;;15.50;99.90;;;;;;164729;30;1320;-73
2022/05/12 00:34:57;;;;;;;3.92;3.05;;;15.50;99.90;;;;;;165451;29;997;-73
2022/05/12 00:35:06;;;;;;;4.05;3.05;;;15.50;99.90;;;;;;166604;29;1234;-73
2022/05/12 00:35:14;;;;;;;4.24;3.03;;;15.50;99.90;;;;;;165152;29;2614;-74